createdAt,value
2019-04-29T00:00:37.917Z,0.00
2019-04-29T00:01:37.815Z,0.00
2019-04-29T00:02:37.770Z,0.00
2019-04-29T00:03:37.764Z,0.00
2019-04-29T00:04:37.737Z,0.00
2019-04-29T00:05:37.648Z,0.00
2019-04-29T00:06:37.635Z,0.00
2019-04-29T00:07:37.567Z,0.00
2019-04-29T00:08:37.488Z,0.00
2019-04-29T00:09:37.447Z,0.00
2019-04-29T00:10:37.426Z,0.00
2019-04-29T00:11:37.384Z,0.00
2019-04-29T00:12:37.333Z,0.00
2019-04-29T00:13:37.299Z,0.00
2019-04-29T00:14:37.225Z,0.00
2019-04-29T00:15:37.202Z,0.00
2019-04-29T00:16:37.133Z,0.00
2019-04-29T00:17:37.137Z,0.00
2019-04-29T00:18:37.071Z,0.00
2019-04-29T00:19:37.064Z,0.00
2019-04-29T00:20:36.971Z,0.00
2019-04-29T00:21:36.956Z,0.00
2019-04-29T00:22:36.909Z,0.00
2019-04-29T00:23:36.836Z,0.00
2019-04-29T00:24:36.795Z,0.00
2019-04-29T00:25:36.775Z,0.00
2019-04-29T00:26:36.734Z,0.00
2019-04-29T00:27:36.662Z,0.00
2019-04-29T00:28:36.594Z,0.00
2019-04-29T00:29:36.550Z,0.00
2019-04-29T00:30:36.523Z,0.00
2019-04-29T00:31:36.515Z,0.00
2019-04-29T00:32:36.430Z,0.00
2019-04-29T00:33:36.404Z,0.00
2019-04-29T00:34:36.355Z,0.00
2019-04-29T00:35:37.235Z,0.00
2019-04-29T00:36:36.258Z,0.00
2019-04-29T00:37:36.264Z,0.00
2019-04-29T00:38:36.157Z,0.00
2019-04-29T00:39:36.103Z,0.00
2019-04-29T00:40:36.070Z,0.00
2019-04-29T00:41:36.027Z,0.00
2019-04-29T00:42:35.987Z,0.00
2019-04-29T00:43:35.942Z,0.00
2019-04-29T00:44:35.900Z,0.00
2019-04-29T00:45:35.870Z,0.00
2019-04-29T00:46:35.799Z,0.00
2019-04-29T00:47:35.796Z,0.00
2019-04-29T00:48:35.737Z,0.00
2019-04-29T00:49:35.701Z,0.00
2019-04-29T00:50:35.630Z,0.00
2019-04-29T00:51:35.619Z,0.00
2019-04-29T00:52:35.623Z,0.00
2019-04-29T00:53:35.509Z,0.00
2019-04-29T00:54:35.485Z,0.00
2019-04-29T00:55:35.399Z,0.00
2019-04-29T00:56:35.365Z,0.00
2019-04-29T00:57:35.355Z,0.00
2019-04-29T00:58:35.279Z,0.00
2019-04-29T00:59:35.232Z,0.00
2019-04-29T01:00:35.175Z,0.00
2019-04-29T01:01:35.134Z,0.00
2019-04-29T01:02:35.125Z,0.00
2019-04-29T01:03:35.054Z,0.00
2019-04-29T01:04:35.018Z,0.00
2019-04-29T01:05:34.982Z,0.00
2019-04-29T01:06:34.951Z,0.00
2019-04-29T01:07:34.921Z,0.00
2019-04-29T01:08:34.820Z,0.00
2019-04-29T01:09:34.764Z,0.00
2019-04-29T01:10:34.732Z,0.00
2019-04-29T01:11:34.736Z,0.00
2019-04-29T01:12:34.657Z,0.00
2019-04-29T01:13:34.606Z,0.00
2019-04-29T01:14:34.570Z,0.00
2019-04-29T01:15:34.534Z,0.00
2019-04-29T01:16:34.517Z,0.00
2019-04-29T01:17:34.443Z,0.00
2019-04-29T01:18:34.404Z,0.00
2019-04-29T01:19:34.341Z,0.00
2019-04-29T01:20:34.306Z,0.00
2019-04-29T01:21:34.255Z,0.00
2019-04-29T01:22:34.235Z,0.00
2019-04-29T01:23:34.148Z,0.00
2019-04-29T01:24:34.129Z,0.00
2019-04-29T01:25:34.056Z,0.00
2019-04-29T01:26:34.072Z,0.00
2019-04-29T01:27:34.004Z,0.00
2019-04-29T01:28:33.945Z,0.00
2019-04-29T01:29:33.881Z,0.00
2019-04-29T01:30:33.870Z,0.00
2019-04-29T01:31:33.800Z,0.00
2019-04-29T01:32:33.760Z,0.00
2019-04-29T01:33:33.712Z,0.00
2019-04-29T01:34:33.661Z,0.00
2019-04-29T01:35:33.635Z,0.00
2019-04-29T01:36:33.631Z,0.00
2019-04-29T01:37:33.564Z,0.00
2019-04-29T01:38:33.508Z,0.00
2019-04-29T01:39:33.442Z,0.00
2019-04-29T01:40:33.399Z,0.00
2019-04-29T01:41:33.351Z,0.00
2019-04-29T01:42:33.345Z,0.00
2019-04-29T01:43:33.266Z,0.00
2019-04-29T01:44:33.235Z,0.00
2019-04-29T01:45:33.186Z,0.00
2019-04-29T01:46:33.130Z,0.00
2019-04-29T01:47:33.089Z,0.00
2019-04-29T01:48:33.064Z,0.00
2019-04-29T01:49:32.991Z,0.00
2019-04-29T01:50:32.987Z,0.00
2019-04-29T01:51:32.897Z,0.00
2019-04-29T01:52:32.858Z,0.00
2019-04-29T01:53:32.811Z,0.00
2019-04-29T01:54:32.790Z,0.00
2019-04-29T01:55:32.726Z,0.00
2019-04-29T01:56:32.668Z,0.00
2019-04-29T01:57:32.638Z,0.00
2019-04-29T01:58:32.598Z,0.00
2019-04-29T01:59:32.578Z,0.00
2019-04-29T02:00:32.487Z,0.00
2019-04-29T02:01:32.465Z,0.00
2019-04-29T02:02:32.420Z,0.00
2019-04-29T02:03:32.357Z,0.00
2019-04-29T02:04:32.350Z,0.00
2019-04-29T02:05:32.257Z,0.00
2019-04-29T02:06:32.224Z,0.00
2019-04-29T02:07:32.192Z,0.00
2019-04-29T02:08:32.156Z,0.00
2019-04-29T02:09:32.093Z,0.00
2019-04-29T02:10:32.092Z,0.00
2019-04-29T02:11:31.996Z,0.00
2019-04-29T02:12:31.958Z,0.00
2019-04-29T02:13:31.931Z,0.00
2019-04-29T02:14:31.871Z,0.00
2019-04-29T02:15:31.857Z,0.00
2019-04-29T02:16:31.807Z,0.00
2019-04-29T02:17:31.746Z,0.00
2019-04-29T02:18:31.711Z,0.00
2019-04-29T02:19:31.659Z,0.00
2019-04-29T02:20:31.624Z,0.00
2019-04-29T02:21:31.578Z,0.00
2019-04-29T02:22:31.563Z,0.00
2019-04-29T02:23:31.477Z,0.00
2019-04-29T02:24:31.416Z,0.00
2019-04-29T02:25:31.375Z,0.00
2019-04-29T02:26:31.326Z,0.00
2019-04-29T02:27:31.324Z,0.00
2019-04-29T02:28:31.251Z,0.00
2019-04-29T02:29:31.192Z,0.00
2019-04-29T02:30:31.164Z,0.00
2019-04-29T02:31:31.126Z,0.00
2019-04-29T02:32:31.088Z,0.00
2019-04-29T02:33:31.037Z,0.00
2019-04-29T02:34:30.990Z,0.00
2019-04-29T02:35:30.945Z,0.00
2019-04-29T02:36:30.878Z,0.00
2019-04-29T02:37:30.855Z,0.00
2019-04-29T02:38:30.784Z,0.00
2019-04-29T02:39:30.757Z,0.00
2019-04-29T02:40:30.695Z,0.00
2019-04-29T02:41:30.696Z,0.00
2019-04-29T02:42:30.611Z,0.00
2019-04-29T02:43:30.593Z,0.00
2019-04-29T02:44:30.527Z,0.00
2019-04-29T02:45:30.473Z,0.00
2019-04-29T02:46:30.460Z,0.00
2019-04-29T02:47:30.431Z,0.00
2019-04-29T02:48:34.418Z,0.00
2019-04-29T02:49:30.319Z,0.00
2019-04-29T02:50:30.271Z,0.00
2019-04-29T02:51:30.244Z,0.00
2019-04-29T02:52:30.162Z,0.00
2019-04-29T02:53:30.164Z,0.00
2019-04-29T02:54:30.108Z,0.00
2019-04-29T02:55:30.034Z,0.00
2019-04-29T02:56:30.004Z,0.00
2019-04-29T02:57:29.977Z,0.00
2019-04-29T02:58:29.901Z,0.00
2019-04-29T02:59:29.896Z,0.00
2019-04-29T03:00:29.807Z,0.00
2019-04-29T03:01:29.760Z,0.00
2019-04-29T03:02:29.710Z,0.00
2019-04-29T03:03:29.670Z,0.00
2019-04-29T03:04:29.634Z,0.00
2019-04-29T03:05:29.594Z,0.00
2019-04-29T03:06:29.554Z,0.00
2019-04-29T03:07:29.489Z,0.00
2019-04-29T03:08:29.440Z,0.00
2019-04-29T03:09:29.392Z,0.00
2019-04-29T03:10:29.355Z,0.00
2019-04-29T03:11:29.349Z,0.00
2019-04-29T03:12:37.893Z,0.00
2019-04-29T03:13:29.189Z,0.00
2019-04-29T03:14:29.151Z,0.00
2019-04-29T03:15:29.095Z,0.00
2019-04-29T03:16:29.062Z,0.00
2019-04-29T03:17:29.054Z,0.00
2019-04-29T03:18:28.974Z,0.00
2019-04-29T03:19:28.930Z,0.00
2019-04-29T03:20:28.873Z,0.00
2019-04-29T03:21:28.832Z,0.00
2019-04-29T03:22:28.789Z,0.00
2019-04-29T03:23:28.769Z,0.00
2019-04-29T03:24:28.695Z,0.00
2019-04-29T03:25:28.642Z,0.00
2019-04-29T03:26:28.661Z,0.00
2019-04-29T03:27:28.562Z,0.00
2019-04-29T03:28:28.518Z,0.00
2019-04-29T03:29:28.496Z,0.00
2019-04-29T03:30:28.431Z,0.00
2019-04-29T03:31:28.384Z,0.00
2019-04-29T03:32:28.368Z,0.00
2019-04-29T03:33:28.282Z,0.00
2019-04-29T03:34:28.300Z,0.00
2019-04-29T03:35:28.238Z,0.00
2019-04-29T03:36:28.152Z,0.00
2019-04-29T03:37:28.102Z,0.00
2019-04-29T03:38:28.056Z,0.00
2019-04-29T03:39:28.016Z,0.00
2019-04-29T03:40:27.993Z,0.00
2019-04-29T03:41:27.955Z,0.00
2019-04-29T03:42:27.909Z,0.00
2019-04-29T03:43:27.838Z,0.00
2019-04-29T03:44:27.794Z,0.00
2019-04-29T03:45:27.765Z,0.00
2019-04-29T03:46:27.701Z,0.00
2019-04-29T03:47:27.662Z,0.00
2019-04-29T03:48:27.640Z,0.00
2019-04-29T03:49:27.571Z,0.00
2019-04-29T03:50:27.548Z,0.00
2019-04-29T03:51:27.476Z,0.00
2019-04-29T03:52:27.429Z,0.00
2019-04-29T03:53:28.427Z,0.00
2019-04-29T03:54:27.367Z,0.00
2019-04-29T03:55:38.962Z,0.00
2019-04-29T03:56:27.251Z,0.00
2019-04-29T03:57:27.198Z,0.00
2019-04-29T03:58:27.164Z,0.00
2019-04-29T03:59:27.119Z,0.00
2019-04-29T04:00:27.068Z,5.63
2019-04-29T04:01:27.049Z,5.63
2019-04-29T04:02:26.982Z,5.63
2019-04-29T04:03:26.941Z,5.63
2019-04-29T04:04:26.891Z,5.63
2019-04-29T04:05:26.865Z,5.63
2019-04-29T04:06:26.796Z,5.63
2019-04-29T04:07:26.755Z,11.25
2019-04-29T04:08:26.710Z,11.25
2019-04-29T04:09:26.660Z,11.25
2019-04-29T04:10:26.653Z,11.25
2019-04-29T04:11:26.579Z,16.88
2019-04-29T04:12:26.555Z,16.88
2019-04-29T04:13:26.489Z,16.88
2019-04-29T04:14:26.441Z,22.50
2019-04-29T04:15:26.398Z,22.50
2019-04-29T04:16:26.358Z,28.13
2019-04-29T04:17:26.303Z,28.13
2019-04-29T04:18:26.277Z,33.75
2019-04-29T04:19:26.212Z,33.75
2019-04-29T04:20:26.169Z,39.38
2019-04-29T04:21:26.132Z,45.00
2019-04-29T04:22:26.083Z,50.63
2019-04-29T04:23:26.051Z,50.63
2019-04-29T04:24:26.007Z,56.25
2019-04-29T04:25:25.941Z,61.88
2019-04-29T04:26:25.904Z,67.50
2019-04-29T04:27:25.854Z,73.13
2019-04-29T04:28:25.837Z,78.75
2019-04-29T04:29:25.761Z,78.75
2019-04-29T04:30:25.741Z,84.38
2019-04-29T04:31:25.669Z,90.00
2019-04-29T04:32:25.623Z,95.63
2019-04-29T04:33:25.589Z,101.25
2019-04-29T04:34:25.550Z,112.50
2019-04-29T04:35:25.495Z,118.13
2019-04-29T04:36:25.474Z,129.38
2019-04-29T04:37:25.404Z,135.00
2019-04-29T04:38:25.357Z,140.63
2019-04-29T04:39:25.323Z,146.25
2019-04-29T04:40:25.275Z,151.88
2019-04-29T04:41:25.247Z,151.88
2019-04-29T04:42:25.177Z,157.50
2019-04-29T04:43:25.152Z,157.50
2019-04-29T04:44:25.091Z,157.50
2019-04-29T04:45:25.062Z,151.88
2019-04-29T04:46:25.035Z,146.25
2019-04-29T04:47:24.964Z,135.00
2019-04-29T04:48:24.918Z,129.38
2019-04-29T04:49:24.865Z,129.38
2019-04-29T04:50:24.829Z,135.00
2019-04-29T04:51:24.778Z,135.00
2019-04-29T04:52:24.753Z,135.00
2019-04-29T04:53:24.734Z,135.00
2019-04-29T04:54:24.650Z,135.00
2019-04-29T04:55:24.601Z,135.00
2019-04-29T04:56:24.553Z,140.63
2019-04-29T04:57:24.517Z,140.63
2019-04-29T04:58:24.473Z,140.63
2019-04-29T04:59:24.465Z,146.25
2019-04-29T05:00:24.393Z,146.25
2019-04-29T05:01:24.333Z,151.88
2019-04-29T05:02:24.290Z,151.88
2019-04-29T05:03:24.249Z,157.50
2019-04-29T05:04:24.200Z,163.13
2019-04-29T05:05:24.189Z,185.63
2019-04-29T05:06:24.118Z,219.38
2019-04-29T05:07:24.108Z,247.50
2019-04-29T05:08:24.060Z,258.75
2019-04-29T05:09:23.983Z,264.38
2019-04-29T05:10:23.936Z,270.00
2019-04-29T05:11:23.904Z,275.63
2019-04-29T05:12:23.851Z,275.63
2019-04-29T05:13:28.343Z,281.25
2019-04-29T05:14:23.782Z,281.25
2019-04-29T05:15:23.750Z,286.88
2019-04-29T05:16:23.670Z,292.50
2019-04-29T05:17:23.637Z,298.13
2019-04-29T05:18:23.591Z,303.75
2019-04-29T05:19:23.548Z,309.38
2019-04-29T05:20:23.525Z,320.63
2019-04-29T05:21:23.494Z,326.25
2019-04-29T05:22:23.412Z,331.88
2019-04-29T05:23:23.373Z,343.13
2019-04-29T05:24:23.327Z,354.38
2019-04-29T05:25:23.321Z,365.63
2019-04-29T05:26:23.275Z,376.88
2019-04-29T05:27:23.196Z,388.13
2019-04-29T05:28:23.156Z,399.38
2019-04-29T05:29:23.117Z,410.63
2019-04-29T05:30:23.108Z,421.88
2019-04-29T05:31:23.034Z,433.13
2019-04-29T05:32:23.017Z,444.38
2019-04-29T05:33:22.943Z,450.00
2019-04-29T05:34:22.906Z,461.25
2019-04-29T05:35:24.920Z,472.50
2019-04-29T05:36:22.850Z,483.75
2019-04-29T05:37:22.787Z,495.00
2019-04-29T05:38:22.746Z,511.88
2019-04-29T05:39:22.704Z,517.50
2019-04-29T05:40:22.661Z,528.75
2019-04-29T05:41:22.616Z,534.38
2019-04-29T05:42:22.593Z,540.00
2019-04-29T05:43:22.539Z,551.25
2019-04-29T05:44:22.529Z,556.88
2019-04-29T05:45:22.454Z,568.13
2019-04-29T05:46:23.285Z,573.75
2019-04-29T05:47:22.395Z,573.75
2019-04-29T05:48:22.328Z,579.38
2019-04-29T05:49:22.327Z,579.38
2019-04-29T05:50:22.266Z,579.38
2019-04-29T05:51:22.724Z,573.75
2019-04-29T05:52:22.182Z,579.38
2019-04-29T05:53:22.137Z,579.38
2019-04-29T05:54:22.107Z,579.38
2019-04-29T05:55:22.085Z,585.00
2019-04-29T05:56:22.015Z,596.25
2019-04-29T05:57:25.281Z,607.50
2019-04-29T05:58:21.946Z,618.75
2019-04-29T05:59:21.929Z,635.63
2019-04-29T06:00:23.266Z,635.63
2019-04-29T06:01:21.834Z,641.25
2019-04-29T06:02:23.583Z,641.25
2019-04-29T06:03:21.748Z,635.63
2019-04-29T06:04:21.711Z,646.88
2019-04-29T06:05:21.693Z,669.38
2019-04-29T06:06:21.653Z,669.38
2019-04-29T06:07:23.099Z,478.13
2019-04-29T06:08:21.553Z,461.25
2019-04-29T06:09:21.532Z,658.13
2019-04-29T06:10:23.019Z,613.13
2019-04-29T06:11:23.230Z,680.63
2019-04-29T06:12:21.409Z,495.00
2019-04-29T06:13:21.361Z,663.75
2019-04-29T06:14:22.305Z,742.50
2019-04-29T06:15:21.303Z,759.38
2019-04-29T06:16:22.691Z,765.00
2019-04-29T06:17:21.213Z,765.00
2019-04-29T06:18:22.134Z,765.00
2019-04-29T06:19:21.136Z,770.63
2019-04-29T06:20:22.834Z,770.63
2019-04-29T06:21:21.086Z,770.63
2019-04-29T06:22:21.022Z,776.25
2019-04-29T06:23:23.180Z,787.50
2019-04-29T06:24:20.952Z,810.00
2019-04-29T06:25:20.960Z,798.75
2019-04-29T06:26:20.896Z,793.13
2019-04-29T06:27:20.834Z,798.75
2019-04-29T06:28:21.734Z,798.75
2019-04-29T06:29:20.762Z,810.00
2019-04-29T06:30:20.729Z,815.63
2019-04-29T06:31:20.689Z,826.88
2019-04-29T06:32:24.988Z,832.50
2019-04-29T06:33:24.326Z,855.00
2019-04-29T06:34:20.637Z,911.25
2019-04-29T06:35:20.545Z,1125.00
2019-04-29T06:36:20.502Z,1440.00
2019-04-29T06:37:20.491Z,1428.75
2019-04-29T06:38:20.425Z,1524.38
2019-04-29T06:39:20.389Z,1451.25
2019-04-29T06:40:20.363Z,1158.75
2019-04-29T06:41:20.322Z,1012.50
2019-04-29T06:42:20.479Z,961.88
2019-04-29T06:43:20.275Z,950.63
2019-04-29T06:44:20.209Z,838.13
2019-04-29T06:45:20.170Z,832.50
2019-04-29T06:46:20.137Z,753.75
2019-04-29T06:47:20.106Z,900.00
2019-04-29T06:48:20.097Z,652.50
2019-04-29T06:49:20.023Z,731.25
2019-04-29T06:50:19.995Z,759.38
2019-04-29T06:51:19.959Z,798.75
2019-04-29T06:52:19.970Z,894.38
2019-04-29T06:53:21.513Z,956.25
2019-04-29T06:54:19.856Z,939.38
2019-04-29T06:55:19.813Z,928.13
2019-04-29T06:56:19.804Z,928.13
2019-04-29T06:57:19.740Z,939.38
2019-04-29T06:58:19.714Z,933.75
2019-04-29T06:59:19.669Z,922.50
2019-04-29T07:00:22.344Z,928.13
2019-04-29T07:01:19.631Z,939.38
2019-04-29T07:02:19.571Z,950.63
2019-04-29T07:03:20.975Z,945.00
2019-04-29T07:04:19.486Z,978.75
2019-04-29T07:05:19.460Z,995.63
2019-04-29T07:06:19.423Z,1018.13
2019-04-29T07:07:19.388Z,1040.63
2019-04-29T07:08:19.374Z,1035.00
2019-04-29T07:09:19.316Z,1102.50
2019-04-29T07:10:21.266Z,1113.75
2019-04-29T07:11:19.297Z,1130.63
2019-04-29T07:12:19.205Z,1136.25
2019-04-29T07:13:22.854Z,1198.13
2019-04-29T07:14:19.145Z,1299.38
2019-04-29T07:15:19.105Z,1822.50
2019-04-29T07:16:21.909Z,2058.75
2019-04-29T07:17:26.996Z,2469.38
2019-04-29T07:18:26.044Z,2953.13
2019-04-29T07:19:28.180Z,3515.63
2019-04-29T07:20:26.574Z,4230.00
2019-04-29T07:21:26.580Z,6316.88
2019-04-29T07:22:27.635Z,8718.75
2019-04-29T07:23:26.658Z,9765.00
2019-04-29T07:24:20.445Z,8353.13
2019-04-29T07:25:18.750Z,5776.88
2019-04-29T07:26:18.756Z,4331.25
2019-04-29T07:27:18.677Z,3673.13
2019-04-29T07:28:19.571Z,2992.50
2019-04-29T07:29:30.735Z,2520.00
2019-04-29T07:30:29.266Z,2216.25
2019-04-29T07:31:28.277Z,2205.00
2019-04-29T07:32:27.291Z,2013.75
2019-04-29T07:33:27.334Z,1951.88
2019-04-29T07:34:33.229Z,2025.00
2019-04-29T07:35:27.880Z,2278.13
2019-04-29T07:36:27.446Z,2227.50
2019-04-29T07:37:29.873Z,1929.38
2019-04-29T07:38:40.156Z,1822.50
2019-04-29T07:39:31.829Z,1760.63
2019-04-29T07:40:26.064Z,1642.50
2019-04-29T07:41:19.167Z,1580.63
2019-04-29T07:42:32.035Z,1524.38
2019-04-29T07:43:18.117Z,1473.75
2019-04-29T07:44:19.705Z,1445.63
2019-04-29T07:45:18.070Z,1406.25
2019-04-29T07:46:18.005Z,1327.50
2019-04-29T07:47:17.975Z,1260.00
2019-04-29T07:48:17.940Z,1293.75
2019-04-29T07:49:18.932Z,1282.50
2019-04-29T07:50:17.872Z,1248.75
2019-04-29T07:51:17.862Z,1226.25
2019-04-29T07:52:17.804Z,1215.00
2019-04-29T07:53:21.861Z,1209.38
2019-04-29T07:54:17.790Z,1220.63
2019-04-29T07:55:17.706Z,1175.63
2019-04-29T07:56:17.689Z,1181.25
2019-04-29T07:57:18.095Z,1181.25
2019-04-29T07:58:17.604Z,1175.63
2019-04-29T07:59:17.570Z,1170.00
2019-04-29T08:00:17.526Z,1170.00
2019-04-29T08:01:19.906Z,1170.00
2019-04-29T08:02:17.473Z,1181.25
2019-04-29T08:03:17.438Z,1186.88
2019-04-29T08:04:17.404Z,1192.50
2019-04-29T08:05:17.370Z,1113.75
2019-04-29T08:06:17.364Z,1141.88
2019-04-29T08:07:17.298Z,1130.63
2019-04-29T08:08:21.306Z,1147.50
2019-04-29T08:09:17.244Z,1192.50
2019-04-29T08:10:23.655Z,1198.13
2019-04-29T08:11:17.171Z,1220.63
2019-04-29T08:12:17.159Z,1237.50
2019-04-29T08:13:17.102Z,1271.25
2019-04-29T08:14:17.073Z,1276.88
2019-04-29T08:15:17.048Z,1282.50
2019-04-29T08:16:18.514Z,1288.13
2019-04-29T08:17:16.989Z,1293.75
2019-04-29T08:18:18.256Z,1293.75
2019-04-29T08:19:16.906Z,1203.75
2019-04-29T08:20:16.875Z,1153.13
2019-04-29T08:21:16.853Z,1237.50
2019-04-29T08:22:18.359Z,1400.63
2019-04-29T08:23:16.806Z,1389.38
2019-04-29T08:24:17.029Z,1417.50
2019-04-29T08:25:16.707Z,1451.25
2019-04-29T08:26:16.680Z,1462.50
2019-04-29T08:27:16.673Z,1485.00
2019-04-29T08:28:16.638Z,1524.38
2019-04-29T08:29:16.674Z,1575.00
2019-04-29T08:30:18.215Z,1648.13
2019-04-29T08:31:20.672Z,1732.50
2019-04-29T08:32:16.481Z,1918.13
2019-04-29T08:33:16.469Z,2311.88
2019-04-29T08:34:18.727Z,2784.38
2019-04-29T08:35:16.395Z,3330.00
2019-04-29T08:36:16.360Z,3774.38
2019-04-29T08:37:16.321Z,3847.50
2019-04-29T08:38:16.293Z,3931.88
2019-04-29T08:39:16.283Z,3892.50
2019-04-29T08:40:16.934Z,3892.50
2019-04-29T08:41:16.204Z,4027.50
2019-04-29T08:42:16.170Z,4016.25
2019-04-29T08:43:20.633Z,4162.50
2019-04-29T08:44:16.800Z,3909.38
2019-04-29T08:45:16.067Z,3965.63
2019-04-29T08:46:16.054Z,4021.88
2019-04-29T08:47:16.011Z,1310.63
2019-04-29T08:48:15.977Z,3825.00
2019-04-29T08:49:15.962Z,4134.38
2019-04-29T08:50:15.905Z,4241.25
2019-04-29T08:51:15.896Z,4348.13
2019-04-29T08:52:15.843Z,4297.50
2019-04-29T08:53:15.817Z,3948.75
2019-04-29T08:54:16.120Z,3920.63
2019-04-29T08:55:15.756Z,3881.25
2019-04-29T08:56:15.764Z,3926.25
2019-04-29T08:57:15.679Z,4179.38
2019-04-29T08:58:15.652Z,4426.88
2019-04-29T08:59:15.718Z,3937.50
2019-04-29T09:00:15.584Z,4010.63
2019-04-29T09:01:15.563Z,4320.00
2019-04-29T09:02:15.567Z,4089.38
2019-04-29T09:03:18.737Z,3988.13
2019-04-29T09:04:15.464Z,4370.63
2019-04-29T09:05:15.566Z,4297.50
2019-04-29T09:06:15.399Z,4494.38
2019-04-29T09:07:17.580Z,4466.25
2019-04-29T09:08:15.380Z,4381.88
2019-04-29T09:09:28.786Z,4021.88
2019-04-29T09:10:15.267Z,4308.75
2019-04-29T09:11:15.235Z,4522.50
2019-04-29T09:12:24.229Z,4477.50
2019-04-29T09:13:15.202Z,4668.75
2019-04-29T09:14:15.152Z,4584.38
2019-04-29T09:15:15.116Z,4258.13
2019-04-29T09:16:15.098Z,4421.25
2019-04-29T09:17:20.565Z,4505.63
2019-04-29T09:18:15.029Z,4561.88
2019-04-29T09:19:15.010Z,4719.38
2019-04-29T09:20:14.959Z,4618.13
2019-04-29T09:21:14.920Z,4365.00
2019-04-29T09:22:14.890Z,4303.13
2019-04-29T09:23:14.895Z,4336.88
2019-04-29T09:24:14.834Z,3543.75
2019-04-29T09:25:16.612Z,3830.63
2019-04-29T09:26:14.775Z,1108.13
2019-04-29T09:27:14.737Z,4173.75
2019-04-29T09:28:18.107Z,4010.63
2019-04-29T09:29:14.693Z,3999.38
2019-04-29T09:30:14.643Z,4123.13
2019-04-29T09:31:14.619Z,4325.63
2019-04-29T09:32:14.584Z,3948.75
2019-04-29T09:33:14.555Z,4308.75
2019-04-29T09:34:14.570Z,4230.00
2019-04-29T09:35:14.496Z,3386.25
2019-04-29T09:36:15.106Z,1940.63
2019-04-29T09:37:14.434Z,2671.88
2019-04-29T09:38:14.401Z,4151.25
2019-04-29T09:39:14.368Z,4404.38
2019-04-29T09:40:14.356Z,4269.38
2019-04-29T09:41:14.305Z,4528.13
2019-04-29T09:42:14.962Z,4505.63
2019-04-29T09:43:15.783Z,4432.50
2019-04-29T09:44:14.246Z,2801.25
2019-04-29T09:45:14.652Z,1485.00
2019-04-29T09:46:14.153Z,1333.13
2019-04-29T09:47:14.118Z,1057.50
2019-04-29T09:48:14.085Z,990.00
2019-04-29T09:49:14.064Z,956.25
2019-04-29T09:50:14.030Z,894.38
2019-04-29T09:51:17.834Z,843.75
2019-04-29T09:52:13.962Z,838.13
2019-04-29T09:53:13.931Z,905.63
2019-04-29T09:54:14.687Z,1001.25
2019-04-29T09:55:13.875Z,1130.63
2019-04-29T09:56:13.862Z,3892.50
2019-04-29T09:57:13.837Z,3909.38
2019-04-29T09:58:13.777Z,4010.63
2019-04-29T09:59:13.744Z,4044.38
2019-04-29T10:00:13.706Z,4010.63
2019-04-29T10:01:18.271Z,1963.13
2019-04-29T10:02:13.638Z,3330.00
2019-04-29T10:03:13.647Z,3836.25
2019-04-29T10:04:13.580Z,3898.13
2019-04-29T10:05:13.542Z,3971.25
2019-04-29T10:06:13.511Z,3881.25
2019-04-29T10:07:13.492Z,3948.75
2019-04-29T10:08:13.453Z,3892.50
2019-04-29T10:09:13.445Z,3926.25
2019-04-29T10:10:13.400Z,3841.88
2019-04-29T10:11:13.351Z,3616.88
2019-04-29T10:12:13.343Z,3526.88
2019-04-29T10:13:13.319Z,3982.50
2019-04-29T10:14:13.264Z,4235.63
2019-04-29T10:15:13.234Z,4168.13
2019-04-29T10:16:13.203Z,1687.50
2019-04-29T10:17:15.490Z,1316.25
2019-04-29T10:18:13.147Z,1096.88
2019-04-29T10:19:13.126Z,956.25
2019-04-29T10:20:13.110Z,877.50
2019-04-29T10:21:16.418Z,832.50
2019-04-29T10:22:13.018Z,843.75
2019-04-29T10:23:12.981Z,905.63
2019-04-29T10:24:14.594Z,1012.50
2019-04-29T10:25:12.923Z,1175.63
2019-04-29T10:26:12.908Z,2227.50
2019-04-29T10:27:12.860Z,1316.25
2019-04-29T10:28:12.826Z,3690.00
2019-04-29T10:29:13.847Z,3729.38
2019-04-29T10:30:12.758Z,3858.75
2019-04-29T10:31:12.758Z,3858.75
2019-04-29T10:32:12.689Z,3841.88
2019-04-29T10:33:17.092Z,4320.00
2019-04-29T10:34:12.622Z,4421.25
2019-04-29T10:35:12.602Z,4111.88
2019-04-29T10:36:16.075Z,4095.00
2019-04-29T10:37:12.553Z,4308.75
2019-04-29T10:38:12.497Z,1625.63
2019-04-29T10:39:12.470Z,1867.50
2019-04-29T10:40:12.439Z,1411.88
2019-04-29T10:41:12.406Z,945.00
2019-04-29T10:42:12.375Z,787.50
2019-04-29T10:43:15.574Z,765.00
2019-04-29T10:44:12.305Z,731.25
2019-04-29T10:45:12.272Z,725.63
2019-04-29T10:46:12.266Z,770.63
2019-04-29T10:47:12.236Z,883.13
2019-04-29T10:48:12.182Z,1051.88
2019-04-29T10:49:12.150Z,4123.13
2019-04-29T10:50:15.495Z,4258.13
2019-04-29T10:51:12.078Z,4246.88
2019-04-29T10:52:12.067Z,4168.13
2019-04-29T10:53:15.598Z,4252.50
2019-04-29T10:54:14.233Z,4359.38
2019-04-29T10:55:11.951Z,4483.13
2019-04-29T10:56:11.912Z,4095.00
2019-04-29T10:57:14.670Z,4297.50
2019-04-29T10:58:11.850Z,3898.13
2019-04-29T10:59:11.825Z,4185.00
2019-04-29T11:00:11.794Z,1524.38
2019-04-29T11:01:11.760Z,1468.13
2019-04-29T11:02:14.333Z,4230.00
2019-04-29T11:03:11.694Z,4269.38
2019-04-29T11:04:11.661Z,3993.75
2019-04-29T11:05:12.075Z,2143.13
2019-04-29T11:06:11.597Z,1783.13
2019-04-29T11:07:14.136Z,1895.63
2019-04-29T11:08:11.561Z,1350.00
2019-04-29T11:09:14.314Z,1333.13
2019-04-29T11:10:24.150Z,1620.00
2019-04-29T11:11:22.126Z,1080.00
2019-04-29T11:12:11.414Z,1051.88
2019-04-29T11:13:11.407Z,1130.63
2019-04-29T11:14:11.353Z,1243.13
2019-04-29T11:15:13.955Z,1501.88
2019-04-29T11:16:11.281Z,4168.13
2019-04-29T11:17:16.506Z,4230.00
2019-04-29T11:18:11.242Z,4179.38
2019-04-29T11:19:11.187Z,4095.00
2019-04-29T11:20:15.540Z,4145.63
2019-04-29T11:21:11.124Z,4027.50
2019-04-29T11:22:11.088Z,3183.75
2019-04-29T11:23:16.458Z,1850.63
2019-04-29T11:24:11.041Z,2441.25
2019-04-29T11:25:10.997Z,4083.75
2019-04-29T11:26:10.964Z,3993.75
2019-04-29T11:27:12.370Z,4134.38
2019-04-29T11:28:12.217Z,4089.38
2019-04-29T11:29:10.889Z,4050.00
2019-04-29T11:30:10.828Z,3487.50
2019-04-29T11:31:14.039Z,1597.50
2019-04-29T11:32:10.774Z,1794.38
2019-04-29T11:33:10.742Z,2261.25
2019-04-29T11:34:11.604Z,2221.88
2019-04-29T11:35:10.698Z,2244.38
2019-04-29T11:36:10.642Z,1434.38
2019-04-29T11:37:13.739Z,1248.75
2019-04-29T11:38:10.615Z,1783.13
2019-04-29T11:39:13.787Z,1040.63
2019-04-29T11:40:10.549Z,967.50
2019-04-29T11:41:11.707Z,1001.25
2019-04-29T11:42:10.457Z,1147.50
2019-04-29T11:43:10.834Z,2182.50
2019-04-29T11:44:10.396Z,2891.25
2019-04-29T11:45:13.418Z,3695.63
2019-04-29T11:46:14.320Z,4168.13
2019-04-29T11:47:10.297Z,4061.25
2019-04-29T11:48:10.289Z,3656.25
2019-04-29T11:49:10.235Z,1237.50
2019-04-29T11:50:11.950Z,1006.88
2019-04-29T11:51:10.174Z,832.50
2019-04-29T11:52:10.391Z,703.13
2019-04-29T11:53:10.132Z,624.38
2019-04-29T11:54:12.374Z,590.63
2019-04-29T11:55:10.038Z,596.25
2019-04-29T11:56:10.005Z,624.38
2019-04-29T11:57:10.015Z,675.00
2019-04-29T11:58:09.948Z,753.75
2019-04-29T11:59:09.944Z,849.38
2019-04-29T12:00:10.283Z,939.38
2019-04-29T12:01:10.322Z,1029.38
2019-04-29T12:02:09.829Z,2688.75
2019-04-29T12:03:09.783Z,3650.63
2019-04-29T12:04:09.749Z,3791.25
2019-04-29T12:05:10.184Z,3999.38
2019-04-29T12:06:09.681Z,2143.13
2019-04-29T12:07:09.666Z,4269.38
2019-04-29T12:08:16.149Z,4201.88
2019-04-29T12:09:09.573Z,2002.50
2019-04-29T12:10:09.542Z,3926.25
2019-04-29T12:11:09.585Z,1856.25
2019-04-29T12:12:12.830Z,1501.88
2019-04-29T12:13:09.444Z,1923.75
2019-04-29T12:14:09.409Z,1485.00
2019-04-29T12:15:13.544Z,928.13
2019-04-29T12:16:09.351Z,894.38
2019-04-29T12:17:09.315Z,922.50
2019-04-29T12:18:10.230Z,978.75
2019-04-29T12:19:09.248Z,1108.13
2019-04-29T12:20:09.237Z,1350.00
2019-04-29T12:21:09.181Z,3768.75
2019-04-29T12:22:12.081Z,2908.13
2019-04-29T12:23:11.175Z,2930.63
2019-04-29T12:24:09.085Z,1901.25
2019-04-29T12:25:09.060Z,1631.25
2019-04-29T12:26:09.023Z,1288.13
2019-04-29T12:27:08.984Z,1170.00
2019-04-29T12:28:18.752Z,1108.13
2019-04-29T12:29:08.926Z,1158.75
2019-04-29T12:30:08.897Z,1035.00
2019-04-29T12:31:10.356Z,1023.75
2019-04-29T12:32:08.843Z,1051.88
2019-04-29T12:33:08.785Z,1091.25
2019-04-29T12:34:08.776Z,1170.00
2019-04-29T12:35:08.723Z,1327.50